Terminal Aerodrome Forecast
Issued by NWS

Current Version | Previous Version | Graphics & Text | Print | Product List | Glossary On
Versions: 1 2 3 4 5 6 7 8 9 10 11 12 13 14 15 16 17 18 19 20 21 22 23 24 25 26
000
FTUS41 KRLX 251700
TAFCKB
TAF
KCKB 251740Z 2518/2618 26010G16KT P6SM SCT040
     FM252000 27008KT P6SM SCT040
     FM260600 02004KT P6SM BKN090
     FM260800 VRB03KT 6SM -RA BR OVC050
     FM261000 VRB03KT 3SM -RASN BR OVC025
     FM261200 VRB03KT 2SM -SN BR OVC015=

USA.gov is the U.S. government's official web portal to all federal, state and local government web resources and services.